Terminal Aerodrome Forecast
Issued by NWS Sioux Falls, SD

Home | Current Version | Previous Version | Graphics & Text | Print | Product List | Glossary On
Versions: 1 2 3 4 5 6 7 8 9 10 11 12 13 14 15 16 17 18 19 20 21 22 23
000
FTUS43 KFSD 232049 AAA
TAFFSD
TAF AMD
KFSD 232049Z 2321/2418 19009KT P6SM SCT100 SCT200
     FM240200 16007KT P6SM BKN100
     FM241100 13006KT P6SM FEW100
     FM241600 14010KT P6SM SKC=

USA.gov is the U.S. government's official web portal to all federal, state and local government web resources and services.